sensor_id;sensor_type;location;lat;lon;timestamp;P1;durP1;ratioP1;P2;durP2;ratioP2
10154;SDS011;5118;48.570;7.916;2023-04-25T00:00:52;6.80;;;6.07;;
10154;SDS011;5118;48.570;7.916;2023-04-25T00:03:20;8.00;;;6.03;;
10154;SDS011;5118;48.570;7.916;2023-04-25T00:05:49;7.20;;;5.73;;
10154;SDS011;5118;48.570;7.916;2023-04-25T00:08:18;6.13;;;5.37;;
10154;SDS011;5118;48.570;7.916;2023-04-25T00:10:46;5.30;;;4.80;;
10154;SDS011;5118;48.570;7.916;2023-04-25T00:13:15;5.90;;;5.30;;
10154;SDS011;5118;48.570;7.916;2023-04-25T00:15:45;6.30;;;4.97;;
10154;SDS011;5118;48.570;7.916;2023-04-25T00:18:14;5.30;;;4.80;;
10154;SDS011;5118;48.570;7.916;2023-04-25T00:20:44;4.73;;;4.30;;
10154;SDS011;5118;48.570;7.916;2023-04-25T00:23:13;5.10;;;4.60;;
10154;SDS011;5118;48.570;7.916;2023-04-25T00:25:44;6.23;;;4.43;;
10154;SDS011;5118;48.570;7.916;2023-04-25T00:28:12;4.80;;;4.20;;
10154;SDS011;5118;48.570;7.916;2023-04-25T00:30:41;5.40;;;4.60;;
10154;SDS011;5118;48.570;7.916;2023-04-25T00:33:11;5.07;;;4.33;;
10154;SDS011;5118;48.570;7.916;2023-04-25T00:35:40;5.30;;;4.80;;
10154;SDS011;5118;48.570;7.916;2023-04-25T00:38:09;5.57;;;4.50;;
10154;SDS011;5118;48.570;7.916;2023-04-25T00:40:38;4.73;;;4.23;;
10154;SDS011;5118;48.570;7.916;2023-04-25T00:43:06;5.00;;;4.00;;
10154;SDS011;5118;48.570;7.916;2023-04-25T00:45:34;5.53;;;4.43;;
10154;SDS011;5118;48.570;7.916;2023-04-25T00:48:07;5.67;;;4.20;;
10154;SDS011;5118;48.570;7.916;2023-04-25T00:50:37;5.73;;;4.20;;
10154;SDS011;5118;48.570;7.916;2023-04-25T00:53:07;5.37;;;4.37;;
10154;SDS011;5118;48.570;7.916;2023-04-25T00:55:37;6.00;;;4.30;;
10154;SDS011;5118;48.570;7.916;2023-04-25T00:58:06;4.80;;;4.30;;
10154;SDS011;5118;48.570;7.916;2023-04-25T01:00:34;4.77;;;4.30;;
10154;SDS011;5118;48.570;7.916;2023-04-25T01:03:04;6.73;;;4.70;;
10154;SDS011;5118;48.570;7.916;2023-04-25T01:05:34;5.73;;;4.40;;
10154;SDS011;5118;48.570;7.916;2023-04-25T01:08:04;6.60;;;4.60;;
10154;SDS011;5118;48.570;7.916;2023-04-25T01:10:33;5.83;;;4.60;;
10154;SDS011;5118;48.570;7.916;2023-04-25T01:13:02;5.23;;;4.70;;
10154;SDS011;5118;48.570;7.916;2023-04-25T01:15:32;5.43;;;4.93;;
10154;SDS011;5118;48.570;7.916;2023-04-25T01:18:02;4.57;;;4.17;;
10154;SDS011;5118;48.570;7.916;2023-04-25T01:20:31;5.10;;;4.20;;
10154;SDS011;5118;48.570;7.916;2023-04-25T01:23:02;5.20;;;4.70;;
10154;SDS011;5118;48.570;7.916;2023-04-25T01:25:31;5.70;;;4.90;;
10154;SDS011;5118;48.570;7.916;2023-04-25T01:27:59;5.20;;;4.40;;
10154;SDS011;5118;48.570;7.916;2023-04-25T01:30:28;4.97;;;4.47;;
10154;SDS011;5118;48.570;7.916;2023-04-25T01:32:57;6.33;;;4.80;;
10154;SDS011;5118;48.570;7.916;2023-04-25T01:35:27;5.83;;;5.00;;
10154;SDS011;5118;48.570;7.916;2023-04-25T01:37:56;5.23;;;4.73;;
10154;SDS011;5118;48.570;7.916;2023-04-25T01:40:26;5.87;;;5.30;;
10154;SDS011;5118;48.570;7.916;2023-04-25T01:42:56;6.83;;;4.37;;
10154;SDS011;5118;48.570;7.916;2023-04-25T01:45:24;5.10;;;4.60;;
10154;SDS011;5118;48.570;7.916;2023-04-25T01:47:53;5.10;;;4.37;;
10154;SDS011;5118;48.570;7.916;2023-04-25T01:50:21;7.33;;;5.10;;
10154;SDS011;5118;48.570;7.916;2023-04-25T01:52:50;6.10;;;5.03;;
10154;SDS011;5118;48.570;7.916;2023-04-25T01:55:19;5.77;;;5.13;;
10154;SDS011;5118;48.570;7.916;2023-04-25T01:58:01;5.40;;;4.90;;
10154;SDS011;5118;48.570;7.916;2023-04-25T02:00:58;7.10;;;5.13;;
10154;SDS011;5118;48.570;7.916;2023-04-25T02:03:33;6.83;;;5.30;;
10154;SDS011;5118;48.570;7.916;2023-04-25T02:06:06;5.63;;;5.13;;
10154;SDS011;5118;48.570;7.916;2023-04-25T02:08:38;6.40;;;5.53;;
10154;SDS011;5118;48.570;7.916;2023-04-25T02:11:06;6.77;;;5.40;;
10154;SDS011;5118;48.570;7.916;2023-04-25T02:13:42;8.10;;;5.50;;
10154;SDS011;5118;48.570;7.916;2023-04-25T02:16:34;6.03;;;5.33;;
10154;SDS011;5118;48.570;7.916;2023-04-25T02:19:06;7.07;;;6.17;;
10154;SDS011;5118;48.570;7.916;2023-04-25T02:21:34;8.23;;;6.00;;
10154;SDS011;5118;48.570;7.916;2023-04-25T02:24:03;7.37;;;6.57;;
10154;SDS011;5118;48.570;7.916;2023-04-25T02:26:33;7.77;;;5.97;;
10154;SDS011;5118;48.570;7.916;2023-04-25T02:29:02;7.47;;;6.67;;
10154;SDS011;5118;48.570;7.916;2023-04-25T02:31:33;8.57;;;6.10;;
10154;SDS011;5118;48.570;7.916;2023-04-25T02:34:01;6.67;;;6.07;;
10154;SDS011;5118;48.570;7.916;2023-04-25T02:36:30;7.60;;;6.60;;
10154;SDS011;5118;48.570;7.916;2023-04-25T02:39:00;6.93;;;6.33;;
10154;SDS011;5118;48.570;7.916;2023-04-25T02:41:29;9.47;;;7.00;;
10154;SDS011;5118;48.570;7.916;2023-04-25T02:43:58;6.83;;;6.00;;
10154;SDS011;5118;48.570;7.916;2023-04-25T02:46:27;6.43;;;5.83;;
10154;SDS011;5118;48.570;7.916;2023-04-25T02:49:05;6.93;;;6.30;;
10154;SDS011;5118;48.570;7.916;2023-04-25T02:51:34;7.00;;;6.40;;
10154;SDS011;5118;48.570;7.916;2023-04-25T02:54:03;6.13;;;5.53;;
10154;SDS011;5118;48.570;7.916;2023-04-25T02:56:37;6.90;;;6.20;;
10154;SDS011;5118;48.570;7.916;2023-04-25T02:59:11;7.17;;;6.20;;
10154;SDS011;5118;48.570;7.916;2023-04-25T03:01:41;6.90;;;6.20;;
10154;SDS011;5118;48.570;7.916;2023-04-25T03:04:09;6.70;;;6.00;;
10154;SDS011;5118;48.570;7.916;2023-04-25T03:06:38;6.83;;;6.13;;
10154;SDS011;5118;48.570;7.916;2023-04-25T03:09:07;6.57;;;5.97;;
10154;SDS011;5118;48.570;7.916;2023-04-25T03:11:36;6.60;;;5.97;;
10154;SDS011;5118;48.570;7.916;2023-04-25T03:14:06;7.10;;;6.40;;
10154;SDS011;5118;48.570;7.916;2023-04-25T03:16:34;7.90;;;6.80;;
10154;SDS011;5118;48.570;7.916;2023-04-25T03:19:04;7.03;;;6.37;;
10154;SDS011;5118;48.570;7.916;2023-04-25T03:21:33;7.17;;;6.00;;
10154;SDS011;5118;48.570;7.916;2023-04-25T03:24:03;6.97;;;6.37;;
10154;SDS011;5118;48.570;7.916;2023-04-25T03:26:32;6.30;;;5.63;;
10154;SDS011;5118;48.570;7.916;2023-04-25T03:29:01;6.83;;;5.87;;
10154;SDS011;5118;48.570;7.916;2023-04-25T03:31:29;6.87;;;6.17;;
10154;SDS011;5118;48.570;7.916;2023-04-25T03:33:58;6.73;;;6.03;;
10154;SDS011;5118;48.570;7.916;2023-04-25T03:36:28;7.03;;;6.33;;
10154;SDS011;5118;48.570;7.916;2023-04-25T03:38:57;7.23;;;6.53;;
10154;SDS011;5118;48.570;7.916;2023-04-25T03:41:26;7.17;;;6.40;;
10154;SDS011;5118;48.570;7.916;2023-04-25T03:44:01;6.90;;;6.30;;
10154;SDS011;5118;48.570;7.916;2023-04-25T03:46:30;7.33;;;6.53;;
10154;SDS011;5118;48.570;7.916;2023-04-25T03:48:59;6.80;;;6.10;;
10154;SDS011;5118;48.570;7.916;2023-04-25T03:51:45;7.50;;;6.90;;
10154;SDS011;5118;48.570;7.916;2023-04-25T03:54:14;7.87;;;6.37;;
10154;SDS011;5118;48.570;7.916;2023-04-25T03:56:54;8.13;;;6.70;;
10154;SDS011;5118;48.570;7.916;2023-04-25T03:59:25;7.50;;;6.80;;
10154;SDS011;5118;48.570;7.916;2023-04-25T04:01:54;7.60;;;6.80;;
10154;SDS011;5118;48.570;7.916;2023-04-25T04:04:23;7.40;;;6.70;;
10154;SDS011;5118;48.570;7.916;2023-04-25T04:06:54;8.00;;;7.00;;
10154;SDS011;5118;48.570;7.916;2023-04-25T04:09:28;7.93;;;7.07;;
10154;SDS011;5118;48.570;7.916;2023-04-25T04:11:58;8.90;;;6.83;;
10154;SDS011;5118;48.570;7.916;2023-04-25T04:14:29;7.77;;;7.00;;
10154;SDS011;5118;48.570;7.916;2023-04-25T04:16:58;9.17;;;8.13;;
10154;SDS011;5118;48.570;7.916;2023-04-25T04:19:27;9.07;;;8.17;;
10154;SDS011;5118;48.570;7.916;2023-04-25T04:22:17;9.27;;;8.07;;
10154;SDS011;5118;48.570;7.916;2023-04-25T04:24:46;8.33;;;7.60;;
10154;SDS011;5118;48.570;7.916;2023-04-25T04:27:27;8.33;;;7.53;;
10154;SDS011;5118;48.570;7.916;2023-04-25T04:30:16;8.43;;;7.33;;
10154;SDS011;5118;48.570;7.916;2023-04-25T04:32:53;8.73;;;7.90;;
10154;SDS011;5118;48.570;7.916;2023-04-25T04:35:22;8.70;;;7.73;;
10154;SDS011;5118;48.570;7.916;2023-04-25T04:37:52;9.87;;;8.87;;
10154;SDS011;5118;48.570;7.916;2023-04-25T04:40:24;10.77;;;9.03;;
10154;SDS011;5118;48.570;7.916;2023-04-25T04:43:08;7.93;;;7.13;;
10154;SDS011;5118;48.570;7.916;2023-04-25T04:45:55;8.20;;;7.40;;
10154;SDS011;5118;48.570;7.916;2023-04-25T04:48:52;8.33;;;7.13;;
10154;SDS011;5118;48.570;7.916;2023-04-25T04:52:01;8.33;;;6.73;;
10154;SDS011;5118;48.570;7.916;2023-04-25T04:54:50;22.63;;;19.90;;
10154;SDS011;5118;48.570;7.916;2023-04-25T04:57:41;6.80;;;6.10;;
10154;SDS011;5118;48.570;7.916;2023-04-25T05:00:39;7.57;;;6.33;;
10154;SDS011;5118;48.570;7.916;2023-04-25T05:03:26;10.60;;;9.20;;
10154;SDS011;5118;48.570;7.916;2023-04-25T05:06:06;10.67;;;9.73;;
10154;SDS011;5118;48.570;7.916;2023-04-25T05:09:07;8.80;;;7.17;;
10154;SDS011;5118;48.570;7.916;2023-04-25T05:12:03;9.60;;;7.63;;
10154;SDS011;5118;48.570;7.916;2023-04-25T05:14:50;8.60;;;7.40;;
10154;SDS011;5118;48.570;7.916;2023-04-25T05:17:31;7.30;;;6.60;;
10154;SDS011;5118;48.570;7.916;2023-04-25T05:19:59;9.00;;;7.63;;
10154;SDS011;5118;48.570;7.916;2023-04-25T05:22:49;6.67;;;5.97;;
10154;SDS011;5118;48.570;7.916;2023-04-25T05:25:40;7.93;;;5.80;;
10154;SDS011;5118;48.570;7.916;2023-04-25T05:28:22;7.60;;;6.90;;
10154;SDS011;5118;48.570;7.916;2023-04-25T05:31:02;7.50;;;6.70;;
10154;SDS011;5118;48.570;7.916;2023-04-25T05:33:42;8.77;;;6.17;;
10154;SDS011;5118;48.570;7.916;2023-04-25T05:36:12;8.50;;;6.53;;
10154;SDS011;5118;48.570;7.916;2023-04-25T05:38:40;7.03;;;5.50;;
10154;SDS011;5118;48.570;7.916;2023-04-25T05:41:28;7.87;;;5.57;;
10154;SDS011;5118;48.570;7.916;2023-04-25T05:44:13;8.73;;;5.63;;
10154;SDS011;5118;48.570;7.916;2023-04-25T05:47:08;10.23;;;9.23;;
10154;SDS011;5118;48.570;7.916;2023-04-25T05:49:59;11.00;;;8.53;;
10154;SDS011;5118;48.570;7.916;2023-04-25T05:52:51;11.20;;;8.20;;
10154;SDS011;5118;48.570;7.916;2023-04-25T05:55:28;11.23;;;9.70;;
10154;SDS011;5118;48.570;7.916;2023-04-25T05:57:58;14.43;;;12.90;;
10154;SDS011;5118;48.570;7.916;2023-04-25T06:00:29;15.43;;;12.13;;
10154;SDS011;5118;48.570;7.916;2023-04-25T06:02:57;11.93;;;10.27;;
10154;SDS011;5118;48.570;7.916;2023-04-25T06:05:26;10.23;;;8.80;;
10154;SDS011;5118;48.570;7.916;2023-04-25T06:07:55;13.60;;;9.80;;
10154;SDS011;5118;48.570;7.916;2023-04-25T06:10:23;11.30;;;10.10;;
10154;SDS011;5118;48.570;7.916;2023-04-25T06:12:52;13.70;;;11.03;;
10154;SDS011;5118;48.570;7.916;2023-04-25T06:15:22;12.33;;;10.00;;
10154;SDS011;5118;48.570;7.916;2023-04-25T06:17:56;12.27;;;9.77;;
10154;SDS011;5118;48.570;7.916;2023-04-25T06:20:24;16.13;;;11.80;;
10154;SDS011;5118;48.570;7.916;2023-04-25T06:22:55;15.30;;;10.50;;
10154;SDS011;5118;48.570;7.916;2023-04-25T06:25:32;32.37;;;11.90;;
10154;SDS011;5118;48.570;7.916;2023-04-25T06:28:01;14.83;;;11.80;;
10154;SDS011;5118;48.570;7.916;2023-04-25T06:30:31;22.70;;;10.33;;
10154;SDS011;5118;48.570;7.916;2023-04-25T06:33:06;18.60;;;13.83;;
10154;SDS011;5118;48.570;7.916;2023-04-25T06:35:37;17.20;;;13.40;;
10154;SDS011;5118;48.570;7.916;2023-04-25T06:38:09;17.33;;;13.83;;
10154;SDS011;5118;48.570;7.916;2023-04-25T06:40:39;25.57;;;15.13;;
10154;SDS011;5118;48.570;7.916;2023-04-25T06:43:08;18.67;;;13.67;;
10154;SDS011;5118;48.570;7.916;2023-04-25T06:45:56;17.10;;;13.03;;
10154;SDS011;5118;48.570;7.916;2023-04-25T06:48:29;13.03;;;10.10;;
10154;SDS011;5118;48.570;7.916;2023-04-25T06:50:58;12.47;;;10.10;;
10154;SDS011;5118;48.570;7.916;2023-04-25T06:53:27;10.57;;;6.10;;
10154;SDS011;5118;48.570;7.916;2023-04-25T06:56:01;7.30;;;6.30;;
10154;SDS011;5118;48.570;7.916;2023-04-25T06:58:41;6.53;;;5.30;;
10154;SDS011;5118;48.570;7.916;2023-04-25T07:01:33;4.37;;;3.60;;
10154;SDS011;5118;48.570;7.916;2023-04-25T07:04:06;8.13;;;5.67;;
10154;SDS011;5118;48.570;7.916;2023-04-25T07:06:40;5.40;;;4.63;;
10154;SDS011;5118;48.570;7.916;2023-04-25T07:09:10;5.07;;;4.57;;
10154;SDS011;5118;48.570;7.916;2023-04-25T07:11:41;5.57;;;4.10;;
10154;SDS011;5118;48.570;7.916;2023-04-25T07:14:10;4.47;;;4.07;;
10154;SDS011;5118;48.570;7.916;2023-04-25T07:16:39;4.63;;;3.30;;
10154;SDS011;5118;48.570;7.916;2023-04-25T07:19:11;3.27;;;2.97;;
10154;SDS011;5118;48.570;7.916;2023-04-25T07:21:39;4.67;;;4.27;;
10154;SDS011;5118;48.570;7.916;2023-04-25T07:24:07;7.13;;;3.27;;
10154;SDS011;5118;48.570;7.916;2023-04-25T07:26:40;4.30;;;3.90;;
10154;SDS011;5118;48.570;7.916;2023-04-25T07:29:21;3.17;;;2.87;;
10154;SDS011;5118;48.570;7.916;2023-04-25T07:31:50;5.67;;;3.03;;
10154;SDS011;5118;48.570;7.916;2023-04-25T07:34:22;2.50;;;1.93;;
10154;SDS011;5118;48.570;7.916;2023-04-25T07:36:50;5.20;;;4.70;;
10154;SDS011;5118;48.570;7.916;2023-04-25T07:39:19;3.97;;;3.30;;
10154;SDS011;5118;48.570;7.916;2023-04-25T07:41:50;4.67;;;3.80;;
10154;SDS011;5118;48.570;7.916;2023-04-25T07:44:24;9.27;;;7.20;;
10154;SDS011;5118;48.570;7.916;2023-04-25T07:46:52;6.00;;;5.40;;
10154;SDS011;5118;48.570;7.916;2023-04-25T07:49:22;4.73;;;2.93;;
10154;SDS011;5118;48.570;7.916;2023-04-25T07:51:50;3.60;;;3.30;;
10154;SDS011;5118;48.570;7.916;2023-04-25T07:54:20;5.00;;;4.23;;
10154;SDS011;5118;48.570;7.916;2023-04-25T07:56:55;5.67;;;4.43;;
10154;SDS011;5118;48.570;7.916;2023-04-25T07:59:28;8.30;;;5.30;;
10154;SDS011;5118;48.570;7.916;2023-04-25T08:01:59;5.40;;;4.90;;
10154;SDS011;5118;48.570;7.916;2023-04-25T08:04:30;8.57;;;6.07;;
10154;SDS011;5118;48.570;7.916;2023-04-25T08:07:02;6.83;;;5.50;;
10154;SDS011;5118;48.570;7.916;2023-04-25T08:09:39;5.57;;;4.97;;
10154;SDS011;5118;48.570;7.916;2023-04-25T08:12:13;5.27;;;4.40;;
10154;SDS011;5118;48.570;7.916;2023-04-25T08:14:42;4.03;;;3.53;;
10154;SDS011;5118;48.570;7.916;2023-04-25T08:17:10;6.30;;;5.10;;
10154;SDS011;5118;48.570;7.916;2023-04-25T08:19:42;6.17;;;4.20;;
10154;SDS011;5118;48.570;7.916;2023-04-25T08:22:20;4.30;;;3.90;;
10154;SDS011;5118;48.570;7.916;2023-04-25T08:24:54;3.77;;;3.20;;
10154;SDS011;5118;48.570;7.916;2023-04-25T08:27:22;3.50;;;3.20;;
10154;SDS011;5118;48.570;7.916;2023-04-25T08:29:53;4.20;;;3.80;;
10154;SDS011;5118;48.570;7.916;2023-04-25T08:32:21;3.83;;;3.53;;
10154;SDS011;5118;48.570;7.916;2023-04-25T08:35:10;5.43;;;4.00;;
10154;SDS011;5118;48.570;7.916;2023-04-25T08:37:38;4.30;;;3.53;;
10154;SDS011;5118;48.570;7.916;2023-04-25T08:40:14;7.07;;;4.40;;
10154;SDS011;5118;48.570;7.916;2023-04-25T08:42:54;5.13;;;4.67;;
10154;SDS011;5118;48.570;7.916;2023-04-25T08:45:25;4.10;;;3.70;;
10154;SDS011;5118;48.570;7.916;2023-04-25T08:47:55;6.03;;;4.20;;
10154;SDS011;5118;48.570;7.916;2023-04-25T08:50:27;4.00;;;3.60;;
10154;SDS011;5118;48.570;7.916;2023-04-25T08:52:56;4.70;;;3.80;;
10154;SDS011;5118;48.570;7.916;2023-04-25T08:55:29;4.20;;;3.67;;
10154;SDS011;5118;48.570;7.916;2023-04-25T08:57:59;4.20;;;3.90;;
10154;SDS011;5118;48.570;7.916;2023-04-25T09:00:29;3.60;;;3.30;;
10154;SDS011;5118;48.570;7.916;2023-04-25T09:02:58;3.03;;;2.73;;
10154;SDS011;5118;48.570;7.916;2023-04-25T09:05:32;2.83;;;2.63;;
10154;SDS011;5118;48.570;7.916;2023-04-25T09:08:01;3.07;;;2.70;;
10154;SDS011;5118;48.570;7.916;2023-04-25T09:10:30;2.50;;;2.30;;
10154;SDS011;5118;48.570;7.916;2023-04-25T09:13:02;2.20;;;2.10;;
10154;SDS011;5118;48.570;7.916;2023-04-25T09:15:49;2.23;;;1.90;;
10154;SDS011;5118;48.570;7.916;2023-04-25T09:18:52;2.30;;;2.10;;
10154;SDS011;5118;48.570;7.916;2023-04-25T09:21:22;1.87;;;1.77;;
10154;SDS011;5118;48.570;7.916;2023-04-25T09:23:50;2.30;;;2.10;;
10154;SDS011;5118;48.570;7.916;2023-04-25T09:26:20;3.63;;;2.20;;
10154;SDS011;5118;48.570;7.916;2023-04-25T09:28:49;2.20;;;1.87;;
10154;SDS011;5118;48.570;7.916;2023-04-25T09:31:36;2.40;;;2.20;;
10154;SDS011;5118;48.570;7.916;2023-04-25T09:34:07;2.53;;;2.33;;
10154;SDS011;5118;48.570;7.916;2023-04-25T09:36:44;2.83;;;2.30;;
10154;SDS011;5118;48.570;7.916;2023-04-25T09:39:53;3.13;;;2.67;;
10154;SDS011;5118;48.570;7.916;2023-04-25T09:42:23;2.70;;;2.47;;
10154;SDS011;5118;48.570;7.916;2023-04-25T09:44:55;3.23;;;2.80;;
10154;SDS011;5118;48.570;7.916;2023-04-25T09:47:24;2.90;;;2.70;;
10154;SDS011;5118;48.570;7.916;2023-04-25T09:49:59;4.97;;;2.80;;
10154;SDS011;5118;48.570;7.916;2023-04-25T09:52:29;2.33;;;2.13;;
10154;SDS011;5118;48.570;7.916;2023-04-25T09:55:18;3.63;;;2.50;;
10154;SDS011;5118;48.570;7.916;2023-04-25T09:57:47;3.13;;;2.30;;
10154;SDS011;5118;48.570;7.916;2023-04-25T10:00:19;2.33;;;2.10;;
10154;SDS011;5118;48.570;7.916;2023-04-25T10:02:49;2.23;;;2.07;;
10154;SDS011;5118;48.570;7.916;2023-04-25T10:05:48;5.00;;;4.00;;
10154;SDS011;5118;48.570;7.916;2023-04-25T10:08:20;1.90;;;1.80;;
10154;SDS011;5118;48.570;7.916;2023-04-25T10:10:51;2.53;;;1.90;;
10154;SDS011;5118;48.570;7.916;2023-04-25T10:13:20;19.10;;;14.77;;
10154;SDS011;5118;48.570;7.916;2023-04-25T10:15:49;3.53;;;3.23;;
10154;SDS011;5118;48.570;7.916;2023-04-25T10:18:19;2.50;;;2.20;;
10154;SDS011;5118;48.570;7.916;2023-04-25T10:20:48;3.60;;;2.90;;
10154;SDS011;5118;48.570;7.916;2023-04-25T10:23:21;1.70;;;1.60;;
10154;SDS011;5118;48.570;7.916;2023-04-25T10:25:51;2.20;;;2.00;;
10154;SDS011;5118;48.570;7.916;2023-04-25T10:28:20;1.90;;;1.80;;
10154;SDS011;5118;48.570;7.916;2023-04-25T10:30:58;2.00;;;1.80;;
10154;SDS011;5118;48.570;7.916;2023-04-25T10:33:32;1.83;;;1.70;;
10154;SDS011;5118;48.570;7.916;2023-04-25T10:36:08;1.70;;;1.60;;
10154;SDS011;5118;48.570;7.916;2023-04-25T10:38:39;1.80;;;1.70;;
10154;SDS011;5118;48.570;7.916;2023-04-25T10:41:08;1.73;;;1.63;;
10154;SDS011;5118;48.570;7.916;2023-04-25T10:43:39;1.80;;;1.70;;
10154;SDS011;5118;48.570;7.916;2023-04-25T10:46:18;1.80;;;1.70;;
10154;SDS011;5118;48.570;7.916;2023-04-25T10:48:49;1.77;;;1.67;;
10154;SDS011;5118;48.570;7.916;2023-04-25T10:51:20;2.70;;;1.60;;
10154;SDS011;5118;48.570;7.916;2023-04-25T10:53:58;1.60;;;1.50;;
10154;SDS011;5118;48.570;7.916;2023-04-25T10:56:28;1.70;;;1.60;;
10154;SDS011;5118;48.570;7.916;2023-04-25T10:59:03;1.80;;;1.70;;
10154;SDS011;5118;48.570;7.916;2023-04-25T11:01:37;2.13;;;1.90;;
10154;SDS011;5118;48.570;7.916;2023-04-25T11:04:18;1.80;;;1.70;;
10154;SDS011;5118;48.570;7.916;2023-04-25T11:06:55;2.30;;;2.10;;
10154;SDS011;5118;48.570;7.916;2023-04-25T11:09:34;2.00;;;1.90;;
10154;SDS011;5118;48.570;7.916;2023-04-25T11:12:04;2.03;;;1.90;;
10154;SDS011;5118;48.570;7.916;2023-04-25T11:14:35;1.90;;;1.80;;
10154;SDS011;5118;48.570;7.916;2023-04-25T11:17:03;2.00;;;1.90;;
10154;SDS011;5118;48.570;7.916;2023-04-25T11:19:34;1.80;;;1.70;;
10154;SDS011;5118;48.570;7.916;2023-04-25T11:22:03;2.10;;;2.00;;
10154;SDS011;5118;48.570;7.916;2023-04-25T11:24:40;2.90;;;2.70;;
10154;SDS011;5118;48.570;7.916;2023-04-25T11:27:09;2.70;;;2.50;;
10154;SDS011;5118;48.570;7.916;2023-04-25T11:29:37;2.53;;;2.33;;
10154;SDS011;5118;48.570;7.916;2023-04-25T11:32:08;2.33;;;2.13;;
10154;SDS011;5118;48.570;7.916;2023-04-25T11:34:42;2.80;;;2.60;;
10154;SDS011;5118;48.570;7.916;2023-04-25T11:37:12;3.60;;;3.30;;
10154;SDS011;5118;48.570;7.916;2023-04-25T11:39:45;3.57;;;3.27;;
10154;SDS011;5118;48.570;7.916;2023-04-25T11:42:14;3.17;;;2.97;;
10154;SDS011;5118;48.570;7.916;2023-04-25T11:44:43;3.73;;;3.30;;
10154;SDS011;5118;48.570;7.916;2023-04-25T11:47:11;3.47;;;3.13;;
10154;SDS011;5118;48.570;7.916;2023-04-25T11:49:40;3.77;;;3.47;;
10154;SDS011;5118;48.570;7.916;2023-04-25T11:52:08;3.90;;;3.60;;
10154;SDS011;5118;48.570;7.916;2023-04-25T11:54:37;3.87;;;3.57;;
10154;SDS011;5118;48.570;7.916;2023-04-25T11:57:07;11.10;;;9.97;;
10154;SDS011;5118;48.570;7.916;2023-04-25T11:59:35;9.33;;;8.43;;
10154;SDS011;5118;48.570;7.916;2023-04-25T12:02:04;4.53;;;4.13;;
10154;SDS011;5118;48.570;7.916;2023-04-25T12:04:33;4.00;;;3.67;;
10154;SDS011;5118;48.570;7.916;2023-04-25T12:07:02;4.87;;;4.40;;
10154;SDS011;5118;48.570;7.916;2023-04-25T12:09:31;5.30;;;4.80;;
10154;SDS011;5118;48.570;7.916;2023-04-25T12:12:00;5.73;;;4.20;;
10154;SDS011;5118;48.570;7.916;2023-04-25T12:14:32;4.00;;;3.70;;
10154;SDS011;5118;48.570;7.916;2023-04-25T12:17:02;2.93;;;2.70;;
10154;SDS011;5118;48.570;7.916;2023-04-25T12:19:35;3.90;;;3.30;;
10154;SDS011;5118;48.570;7.916;2023-04-25T12:22:18;3.15;;;2.95;;
10154;SDS011;5118;48.570;7.916;2023-04-25T12:24:48;3.00;;;2.80;;
10154;SDS011;5118;48.570;7.916;2023-04-25T12:27:16;3.45;;;2.90;;
10154;SDS011;5118;48.570;7.916;2023-04-25T12:29:54;3.10;;;2.90;;
10154;SDS011;5118;48.570;7.916;2023-04-25T12:32:23;3.20;;;2.90;;
10154;SDS011;5118;48.570;7.916;2023-04-25T12:34:52;3.78;;;3.47;;
10154;SDS011;5118;48.570;7.916;2023-04-25T12:37:21;4.30;;;4.00;;
10154;SDS011;5118;48.570;7.916;2023-04-25T12:39:49;4.10;;;3.80;;
10154;SDS011;5118;48.570;7.916;2023-04-25T12:42:18;4.35;;;3.90;;
10154;SDS011;5118;48.570;7.916;2023-04-25T12:44:46;4.43;;;3.92;;
10154;SDS011;5118;48.570;7.916;2023-04-25T12:47:16;4.93;;;4.53;;
10154;SDS011;5118;48.570;7.916;2023-04-25T12:49:44;3.60;;;3.10;;
10154;SDS011;5118;48.570;7.916;2023-04-25T12:52:13;3.27;;;2.90;;
10154;SDS011;5118;48.570;7.916;2023-04-25T12:54:41;3.00;;;2.37;;
10154;SDS011;5118;48.570;7.916;2023-04-25T12:57:09;2.60;;;2.40;;
10154;SDS011;5118;48.570;7.916;2023-04-25T12:59:37;3.93;;;3.10;;
10154;SDS011;5118;48.570;7.916;2023-04-25T13:02:06;3.70;;;3.40;;
10154;SDS011;5118;48.570;7.916;2023-04-25T13:04:35;3.10;;;2.87;;
10154;SDS011;5118;48.570;7.916;2023-04-25T13:07:04;3.43;;;3.20;;
10154;SDS011;5118;48.570;7.916;2023-04-25T13:09:32;3.40;;;2.83;;
10154;SDS011;5118;48.570;7.916;2023-04-25T13:12:00;2.80;;;2.60;;
10154;SDS011;5118;48.570;7.916;2023-04-25T13:14:29;2.60;;;2.40;;
10154;SDS011;5118;48.570;7.916;2023-04-25T13:16:57;2.03;;;1.90;;
10154;SDS011;5118;48.570;7.916;2023-04-25T13:19:26;1.80;;;1.70;;
10154;SDS011;5118;48.570;7.916;2023-04-25T13:21:55;1.70;;;1.60;;
10154;SDS011;5118;48.570;7.916;2023-04-25T13:24:25;2.17;;;1.48;;
10154;SDS011;5118;48.570;7.916;2023-04-25T13:26:53;1.60;;;1.50;;
10154;SDS011;5118;48.570;7.916;2023-04-25T13:29:22;1.40;;;1.30;;
10154;SDS011;5118;48.570;7.916;2023-04-25T13:31:50;1.30;;;1.17;;
10154;SDS011;5118;48.570;7.916;2023-04-25T13:34:18;1.17;;;1.08;;
10154;SDS011;5118;48.570;7.916;2023-04-25T13:36:47;0.95;;;0.95;;
10154;SDS011;5118;48.570;7.916;2023-04-25T13:39:16;1.08;;;1.08;;
10154;SDS011;5118;48.570;7.916;2023-04-25T13:41:45;1.23;;;1.23;;
10154;SDS011;5118;48.570;7.916;2023-04-25T13:44:13;1.13;;;1.13;;
10154;SDS011;5118;48.570;7.916;2023-04-25T13:46:42;1.10;;;1.00;;
10154;SDS011;5118;48.570;7.916;2023-04-25T13:49:13;1.33;;;1.23;;
10154;SDS011;5118;48.570;7.916;2023-04-25T13:51:42;2.22;;;2.08;;
10154;SDS011;5118;48.570;7.916;2023-04-25T13:54:10;1.50;;;1.40;;
10154;SDS011;5118;48.570;7.916;2023-04-25T13:56:40;3.47;;;3.13;;
10154;SDS011;5118;48.570;7.916;2023-04-25T13:59:09;16.25;;;12.48;;
10154;SDS011;5118;48.570;7.916;2023-04-25T14:01:37;4.10;;;3.80;;
10154;SDS011;5118;48.570;7.916;2023-04-25T14:04:06;3.28;;;2.90;;
10154;SDS011;5118;48.570;7.916;2023-04-25T14:06:34;4.20;;;3.08;;
10154;SDS011;5118;48.570;7.916;2023-04-25T14:09:03;9.88;;;7.10;;
10154;SDS011;5118;48.570;7.916;2023-04-25T14:11:33;11.90;;;7.40;;
10154;SDS011;5118;48.570;7.916;2023-04-25T14:14:04;2.15;;;2.00;;
10154;SDS011;5118;48.570;7.916;2023-04-25T14:16:33;1.70;;;1.60;;
10154;SDS011;5118;48.570;7.916;2023-04-25T14:19:01;11.07;;;7.78;;
10154;SDS011;5118;48.570;7.916;2023-04-25T14:21:29;2.85;;;2.60;;
10154;SDS011;5118;48.570;7.916;2023-04-25T14:23:59;2.13;;;1.92;;
10154;SDS011;5118;48.570;7.916;2023-04-25T14:26:27;11.70;;;9.00;;
10154;SDS011;5118;48.570;7.916;2023-04-25T14:28:56;2.75;;;2.55;;
10154;SDS011;5118;48.570;7.916;2023-04-25T14:31:26;4.30;;;3.88;;
10154;SDS011;5118;48.570;7.916;2023-04-25T14:33:54;6.72;;;5.95;;
10154;SDS011;5118;48.570;7.916;2023-04-25T14:36:25;1.40;;;1.30;;
10154;SDS011;5118;48.570;7.916;2023-04-25T14:38:53;1.55;;;1.45;;
10154;SDS011;5118;48.570;7.916;2023-04-25T14:41:22;1.50;;;1.40;;
10154;SDS011;5118;48.570;7.916;2023-04-25T14:43:51;2.10;;;1.90;;
10154;SDS011;5118;48.570;7.916;2023-04-25T14:46:20;16.88;;;14.88;;
10154;SDS011;5118;48.570;7.916;2023-04-25T14:48:51;20.33;;;16.80;;
10154;SDS011;5118;48.570;7.916;2023-04-25T14:51:19;5.30;;;4.78;;
10154;SDS011;5118;48.570;7.916;2023-04-25T14:53:48;1.80;;;1.70;;
10154;SDS011;5118;48.570;7.916;2023-04-25T14:56:18;2.15;;;2.05;;
10154;SDS011;5118;48.570;7.916;2023-04-25T14:58:46;1.90;;;1.80;;
10154;SDS011;5118;48.570;7.916;2023-04-25T15:01:14;2.35;;;2.13;;
10154;SDS011;5118;48.570;7.916;2023-04-25T15:03:43;2.05;;;1.90;;
10154;SDS011;5118;48.570;7.916;2023-04-25T15:06:13;1.90;;;1.80;;
10154;SDS011;5118;48.570;7.916;2023-04-25T15:08:41;2.83;;;2.63;;
10154;SDS011;5118;48.570;7.916;2023-04-25T15:11:10;2.13;;;2.03;;
10154;SDS011;5118;48.570;7.916;2023-04-25T15:13:38;2.60;;;2.50;;
10154;SDS011;5118;48.570;7.916;2023-04-25T15:16:07;6.82;;;6.32;;
10154;SDS011;5118;48.570;7.916;2023-04-25T15:18:38;3.28;;;3.08;;
10154;SDS011;5118;48.570;7.916;2023-04-25T15:21:07;2.50;;;2.40;;
10154;SDS011;5118;48.570;7.916;2023-04-25T15:23:37;9.38;;;7.63;;
10154;SDS011;5118;48.570;7.916;2023-04-25T15:26:05;2.40;;;2.30;;
10154;SDS011;5118;48.570;7.916;2023-04-25T15:28:33;2.80;;;2.60;;